createdAt,value
2023-03-05T00:01:33.696Z,29.90
2023-03-05T00:04:03.797Z,22.30
2023-03-05T00:06:32.997Z,21.20
2023-03-05T00:09:01.709Z,12.10
2023-03-05T00:11:30.789Z,8.60
2023-03-05T00:14:00.074Z,9.20
2023-03-05T00:16:29.573Z,9.50
2023-03-05T00:19:00.917Z,10.70
2023-03-05T00:21:35.027Z,6.90
2023-03-05T00:24:05.964Z,5.20
2023-03-05T00:26:36.799Z,4.60
2023-03-05T00:29:05.890Z,4.50
2023-03-05T00:31:36.011Z,4.40
2023-03-05T00:34:06.869Z,5.60
2023-03-05T00:36:36.862Z,5.50
2023-03-05T00:39:05.033Z,5.70
2023-03-05T00:41:33.838Z,5.80
2023-03-05T00:44:02.197Z,4.80
2023-03-05T00:46:30.469Z,4.90
2023-03-05T00:48:58.644Z,6.10
2023-03-05T00:51:27.124Z,5.30
2023-03-05T00:53:55.825Z,6.70
2023-03-05T00:56:24.509Z,6.90
2023-03-05T00:58:53.588Z,4.70
2023-03-05T01:01:21.918Z,3.90
2023-03-05T01:03:50.538Z,2.80
2023-03-05T01:06:18.931Z,5.50
2023-03-05T01:08:47.186Z,3.90
2023-03-05T01:11:15.454Z,2.70
2023-03-05T01:13:43.828Z,3.70
2023-03-05T01:16:12.027Z,2.40
2023-03-05T01:18:42.017Z,2.30
2023-03-05T01:21:10.900Z,2.30
2023-03-05T01:23:39.072Z,4.00
2023-03-05T01:26:08.745Z,3.10
2023-03-05T01:28:38.578Z,4.20
2023-03-05T01:31:08.922Z,4.30
2023-03-05T01:33:37.695Z,4.10
2023-03-05T01:36:13.549Z,5.80
2023-03-05T01:38:43.308Z,6.10
2023-03-05T01:41:12.651Z,5.50
2023-03-05T01:43:41.657Z,5.70
2023-03-05T01:46:30.099Z,5.70
2023-03-05T01:49:01.362Z,7.20
2023-03-05T01:51:51.659Z,5.20
2023-03-05T01:54:21.750Z,5.60
2023-03-05T01:56:51.048Z,7.40
2023-03-05T01:59:20.041Z,5.20
2023-03-05T02:01:51.490Z,4.90
2023-03-05T02:04:22.124Z,7.50
2023-03-05T02:06:50.698Z,7.70
2023-03-05T02:09:23.583Z,6.90
2023-03-05T02:11:52.063Z,6.30
2023-03-05T02:14:21.269Z,6.70
2023-03-05T02:16:49.478Z,3.30
2023-03-05T02:19:17.914Z,6.80
2023-03-05T02:21:48.369Z,7.00
2023-03-05T02:24:20.092Z,2.60
2023-03-05T02:26:48.265Z,6.70
2023-03-05T02:29:19.511Z,4.80
2023-03-05T02:31:47.811Z,4.00
2023-03-05T02:34:16.171Z,7.70
2023-03-05T02:36:44.463Z,4.80
2023-03-05T02:39:13.119Z,6.60
2023-03-05T02:41:41.293Z,6.70
2023-03-05T02:44:09.873Z,4.60
2023-03-05T02:46:38.252Z,5.70
2023-03-05T02:49:06.529Z,6.70
2023-03-05T02:51:34.906Z,2.90
2023-03-05T02:54:03.077Z,5.60
2023-03-05T02:56:31.966Z,5.40
2023-03-05T02:59:01.786Z,7.30
2023-03-05T03:01:30.729Z,4.10
2023-03-05T03:03:59.449Z,5.50
2023-03-05T03:06:27.533Z,5.20
2023-03-05T03:08:55.805Z,7.30
2023-03-05T03:11:23.967Z,4.90
2023-03-05T03:13:52.149Z,4.00
2023-03-05T03:16:20.366Z,7.20
2023-03-05T03:18:49.113Z,3.40
2023-03-05T03:21:20.062Z,7.20
2023-03-05T03:23:48.224Z,4.80
2023-03-05T03:26:16.897Z,4.50
2023-03-05T03:28:45.683Z,3.90
2023-03-05T03:31:13.776Z,4.60
2023-03-05T03:33:42.035Z,3.60
2023-03-05T03:36:10.906Z,4.10
2023-03-05T03:38:39.094Z,4.20
2023-03-05T03:41:08.184Z,3.40
2023-03-05T03:43:36.877Z,4.20
2023-03-05T03:46:07.322Z,2.40
2023-03-05T03:48:36.260Z,4.90
2023-03-05T03:51:06.524Z,4.20
2023-03-05T03:53:34.980Z,3.40
2023-03-05T03:56:03.667Z,4.70
2023-03-05T03:58:32.772Z,3.00
2023-03-05T04:01:00.940Z,6.10
2023-03-05T04:03:29.209Z,4.60
2023-03-05T04:05:57.387Z,5.70
2023-03-05T04:08:25.656Z,4.00
2023-03-05T04:10:53.832Z,4.10
2023-03-05T04:13:22.003Z,2.40
2023-03-05T04:15:50.685Z,1.80
2023-03-05T04:18:18.964Z,3.30
2023-03-05T04:20:47.232Z,2.30
2023-03-05T04:23:15.716Z,4.80
2023-03-05T04:25:44.194Z,2.60
2023-03-05T04:28:12.670Z,3.10
2023-03-05T04:30:40.847Z,3.70
2023-03-05T04:33:09.121Z,1.80
2023-03-05T04:35:37.725Z,2.40
2023-03-05T04:38:05.970Z,4.60
2023-03-05T04:40:34.552Z,2.70
2023-03-05T04:43:03.925Z,3.50
2023-03-05T04:45:32.431Z,6.00
2023-03-05T04:48:00.813Z,4.20
2023-03-05T04:50:28.991Z,4.10
2023-03-05T04:52:57.268Z,5.90
2023-03-05T04:55:25.424Z,3.60
2023-03-05T04:57:53.703Z,3.80
2023-03-05T05:00:23.183Z,9.30
2023-03-05T05:02:52.470Z,4.00
2023-03-05T05:05:24.786Z,2.20
2023-03-05T05:07:57.146Z,6.80
2023-03-05T05:10:26.666Z,5.90
2023-03-05T05:12:54.831Z,5.10
2023-03-05T05:15:23.120Z,5.10
2023-03-05T05:17:51.265Z,3.90
2023-03-05T05:20:20.238Z,5.50
2023-03-05T05:22:48.436Z,7.30
2023-03-05T05:25:16.707Z,5.00
2023-03-05T05:27:44.884Z,6.80
2023-03-05T05:30:13.562Z,5.90
2023-03-05T05:32:41.796Z,7.40
2023-03-05T05:35:10.716Z,10.30
2023-03-05T05:37:38.907Z,10.70
2023-03-05T05:40:08.520Z,8.10
2023-03-05T05:42:36.796Z,12.80
2023-03-05T05:45:06.094Z,7.70
2023-03-05T05:47:34.358Z,11.30
2023-03-05T05:50:02.530Z,7.00
2023-03-05T05:52:30.804Z,9.00
2023-03-05T05:54:58.857Z,9.70
2023-03-05T05:57:27.051Z,11.50
2023-03-05T05:59:55.214Z,14.60
2023-03-05T06:02:23.599Z,11.00
2023-03-05T06:04:52.075Z,14.00
2023-03-05T06:07:20.152Z,12.80
2023-03-05T06:09:48.929Z,14.10
2023-03-05T06:12:17.204Z,11.70
2023-03-05T06:14:45.385Z,11.70
2023-03-05T06:17:21.842Z,11.40
2023-03-05T06:19:55.536Z,11.60
2023-03-05T06:22:23.715Z,14.50
2023-03-05T06:24:51.903Z,16.50
2023-03-05T06:27:20.176Z,10.10
2023-03-05T06:29:48.308Z,15.30
2023-03-05T06:32:16.401Z,11.50
2023-03-05T06:34:44.686Z,8.70
2023-03-05T06:37:12.874Z,9.90
2023-03-05T06:39:41.027Z,15.20
2023-03-05T06:42:10.342Z,11.40
2023-03-05T06:44:40.522Z,12.50
2023-03-05T06:47:10.671Z,15.50
2023-03-05T06:49:39.651Z,14.50
2023-03-05T06:52:10.280Z,9.70
2023-03-05T06:57:06.525Z,14.20
2023-03-05T06:59:34.697Z,11.20
2023-03-05T07:02:02.936Z,14.80
2023-03-05T07:04:31.360Z,7.00
2023-03-05T07:07:00.766Z,8.70
2023-03-05T07:09:29.329Z,8.80
2023-03-05T07:11:57.709Z,10.30
2023-03-05T07:14:25.997Z,10.10
2023-03-05T07:16:54.097Z,12.60
2023-03-05T07:19:22.327Z,9.00
2023-03-05T07:21:50.499Z,9.10
2023-03-05T07:24:18.568Z,8.20
2023-03-05T07:26:48.830Z,6.00
2023-03-05T07:29:17.167Z,7.30
2023-03-05T07:31:45.261Z,8.40
2023-03-05T07:34:13.415Z,5.80
2023-03-05T07:36:43.223Z,9.60
2023-03-05T07:39:12.822Z,5.20
2023-03-05T07:41:40.920Z,10.00
2023-03-05T07:44:10.204Z,13.10
2023-03-05T07:46:38.422Z,4.80
2023-03-05T07:49:06.640Z,6.20
2023-03-05T07:51:35.017Z,5.30
2023-03-05T07:54:03.395Z,4.30
2023-03-05T07:56:35.568Z,7.00
2023-03-05T07:59:09.057Z,9.50
2023-03-05T08:01:37.849Z,7.20
2023-03-05T08:04:07.484Z,5.70
2023-03-05T08:06:35.742Z,7.10
2023-03-05T08:09:04.110Z,6.70
2023-03-05T08:11:32.486Z,9.20
2023-03-05T08:14:01.174Z,8.40
2023-03-05T08:16:29.479Z,6.60
2023-03-05T08:18:58.849Z,5.10
2023-03-05T08:21:33.923Z,4.30
2023-03-05T08:24:04.709Z,6.20
2023-03-05T08:26:34.973Z,7.80
2023-03-05T08:29:03.627Z,8.10
2023-03-05T08:31:32.356Z,6.40
2023-03-05T08:34:02.003Z,6.10
2023-03-05T08:36:30.682Z,9.70
2023-03-05T08:38:59.884Z,5.70
2023-03-05T08:41:28.289Z,7.60
2023-03-05T08:43:56.640Z,8.30
2023-03-05T08:46:25.308Z,4.30
2023-03-05T08:48:53.912Z,7.20
2023-03-05T08:51:25.978Z,7.50
2023-03-05T08:53:55.978Z,6.10
2023-03-05T08:56:25.589Z,8.40
2023-03-05T08:58:53.775Z,5.50
2023-03-05T09:01:22.964Z,8.60
2023-03-05T09:03:51.450Z,2.60
2023-03-05T09:06:19.712Z,5.90
2023-03-05T09:08:47.882Z,3.60
2023-03-05T09:11:16.260Z,5.40
2023-03-05T09:13:44.549Z,7.50
2023-03-05T09:16:16.028Z,5.80
2023-03-05T09:18:44.904Z,7.50
2023-03-05T09:21:16.081Z,6.30
2023-03-05T09:23:45.221Z,5.30
2023-03-05T09:26:15.936Z,9.60
2023-03-05T09:28:44.115Z,4.80
2023-03-05T09:31:12.904Z,10.10
2023-03-05T09:33:41.688Z,4.60
2023-03-05T09:36:19.873Z,10.00
2023-03-05T09:38:48.490Z,4.90
2023-03-05T09:41:34.678Z,7.20
2023-03-05T09:44:18.508Z,6.10
2023-03-05T09:46:55.268Z,6.30
2023-03-05T09:49:44.345Z,7.10
2023-03-05T09:52:21.019Z,6.00
2023-03-05T09:54:58.506Z,5.40
2023-03-05T09:57:36.816Z,6.80
2023-03-05T10:00:34.811Z,6.90
2023-03-05T10:03:06.800Z,5.60
2023-03-05T10:05:59.911Z,8.40
2023-03-05T10:08:33.720Z,6.20
2023-03-05T10:11:03.624Z,5.70
2023-03-05T10:13:39.785Z,5.80
2023-03-05T10:16:23.276Z,6.00
2023-03-05T10:19:08.078Z,8.70
2023-03-05T10:22:03.277Z,6.20
2023-03-05T10:24:31.455Z,10.60
2023-03-05T10:27:14.701Z,7.20
2023-03-05T10:29:58.215Z,9.50
2023-03-05T10:33:03.964Z,11.90
2023-03-05T10:35:57.693Z,8.80
2023-03-05T10:39:00.117Z,6.90
2023-03-05T10:41:40.573Z,6.10
2023-03-05T10:44:15.910Z,14.60
2023-03-05T10:46:45.109Z,6.00
2023-03-05T10:49:29.973Z,9.00
2023-03-05T10:52:05.618Z,6.30
2023-03-05T10:54:36.027Z,14.80
2023-03-05T10:57:05.346Z,15.80
2023-03-05T10:59:33.527Z,20.40
2023-03-05T11:02:08.956Z,113.50
2023-03-05T11:04:39.499Z,94.60
2023-03-05T11:07:16.464Z,20.10
2023-03-05T11:10:04.229Z,8.20
2023-03-05T11:12:35.040Z,21.80
2023-03-05T11:17:48.090Z,9.70
2023-03-05T11:20:29.042Z,7.10
2023-03-05T11:23:16.251Z,10.60
2023-03-05T11:26:13.713Z,7.60
2023-03-05T11:28:57.537Z,10.30
2023-03-05T11:31:31.553Z,9.50
2023-03-05T11:34:09.862Z,10.10
2023-03-05T11:36:40.498Z,6.20
2023-03-05T11:41:40.637Z,6.50
2023-03-05T11:44:15.757Z,8.70
2023-03-05T11:46:47.551Z,8.30
2023-03-05T11:49:20.334Z,5.70
2023-03-05T11:52:00.560Z,4.50
2023-03-05T11:54:37.125Z,6.70
2023-03-05T11:57:06.531Z,9.40
2023-03-05T11:59:36.149Z,5.40
2023-03-05T12:02:14.671Z,6.20
2023-03-05T12:04:43.033Z,6.10
2023-03-05T12:07:14.172Z,4.80
2023-03-05T12:09:51.977Z,10.20
2023-03-05T12:13:05.379Z,17.30
2023-03-05T12:16:04.654Z,4.80
2023-03-05T12:18:39.033Z,5.90
2023-03-05T12:21:27.366Z,6.70
2023-03-05T12:24:01.904Z,5.90
2023-03-05T12:27:04.765Z,4.10
2023-03-05T12:29:33.181Z,7.80
2023-03-05T12:32:01.791Z,5.00
2023-03-05T12:34:42.928Z,7.90
2023-03-05T12:37:13.337Z,6.00
2023-03-05T12:39:49.685Z,5.60
2023-03-05T12:42:30.200Z,8.50
2023-03-05T12:45:37.974Z,8.00
2023-03-05T12:48:10.942Z,8.30
2023-03-05T12:50:39.632Z,5.30
2023-03-05T12:53:13.030Z,8.10
2023-03-05T12:55:58.605Z,7.20
2023-03-05T12:59:05.057Z,5.50
2023-03-05T13:01:43.557Z,8.20
2023-03-05T13:04:21.906Z,7.90
2023-03-05T13:07:04.703Z,6.30
2023-03-05T13:09:36.470Z,6.20
2023-03-05T13:12:06.717Z,6.00
2023-03-05T13:14:49.497Z,7.20
2023-03-05T13:17:31.801Z,6.60
2023-03-05T13:20:01.610Z,6.70
2023-03-05T13:22:31.318Z,10.90
2023-03-05T13:25:20.705Z,9.00
2023-03-05T13:27:48.859Z,11.40
2023-03-05T13:30:22.966Z,8.90
2023-03-05T13:32:52.791Z,10.10
2023-03-05T13:35:21.390Z,6.50
2023-03-05T13:37:49.942Z,9.30
2023-03-05T13:40:26.823Z,13.20
2023-03-05T13:42:55.894Z,7.40
2023-03-05T13:45:24.259Z,10.10
2023-03-05T13:48:00.970Z,11.30
2023-03-05T13:50:31.920Z,6.80
2023-03-05T13:53:30.695Z,7.40
2023-03-05T13:56:06.168Z,5.00
2023-03-05T13:58:53.987Z,5.00
2023-03-05T14:01:40.875Z,4.60
2023-03-05T14:04:20.139Z,5.30
2023-03-05T14:06:59.850Z,5.40
2023-03-05T14:09:30.822Z,7.20
2023-03-05T14:12:05.724Z,8.00
2023-03-05T14:14:38.506Z,6.30
2023-03-05T14:17:34.728Z,7.50
2023-03-05T14:20:27.492Z,6.60
2023-03-05T14:22:59.679Z,4.50
2023-03-05T14:25:40.002Z,7.90
2023-03-05T14:28:17.307Z,7.00
2023-03-05T14:30:47.699Z,5.20
2023-03-05T14:33:23.523Z,4.00
2023-03-05T14:35:52.534Z,6.00
2023-03-05T14:38:24.983Z,5.70
2023-03-05T14:40:53.418Z,5.50
2023-03-05T14:43:21.882Z,6.90
2023-03-05T14:45:50.087Z,9.80
2023-03-05T14:48:19.354Z,6.60
2023-03-05T14:50:56.346Z,6.30
2023-03-05T14:53:28.894Z,5.80
2023-03-05T14:55:57.192Z,7.70
2023-03-05T14:58:29.973Z,5.70
2023-03-05T15:00:59.270Z,8.40
2023-03-05T15:03:28.200Z,7.70
2023-03-05T15:05:57.661Z,8.20
2023-03-05T15:08:28.406Z,7.80
2023-03-05T15:10:57.483Z,15.50
2023-03-05T15:13:26.475Z,13.40
2023-03-05T15:15:55.232Z,9.10
2023-03-05T15:18:24.049Z,9.10
2023-03-05T15:20:53.272Z,9.00
2023-03-05T15:23:21.625Z,9.20
2023-03-05T15:25:50.313Z,26.10
2023-03-05T15:28:19.005Z,20.80
2023-03-05T15:30:47.739Z,18.60
2023-03-05T15:33:17.488Z,7.40
2023-03-05T15:35:45.795Z,22.10
2023-03-05T15:38:15.462Z,12.60
2023-03-05T15:40:44.455Z,14.70
2023-03-05T15:43:13.037Z,12.20
2023-03-05T15:45:41.413Z,13.60
2023-03-05T15:48:09.800Z,12.10
2023-03-05T15:50:43.033Z,8.40
2023-03-05T15:53:13.501Z,15.50
2023-03-05T15:55:43.833Z,14.00
2023-03-05T15:58:17.438Z,13.90
2023-03-05T16:00:47.629Z,10.60
2023-03-05T16:03:16.176Z,10.60
2023-03-05T16:05:44.611Z,16.90
2023-03-05T16:08:13.088Z,14.10
2023-03-05T16:10:41.381Z,14.10
2023-03-05T16:13:12.716Z,12.90
2023-03-05T16:15:41.606Z,9.20
2023-03-05T16:18:12.953Z,10.20
2023-03-05T16:20:41.330Z,10.70
2023-03-05T16:23:09.602Z,13.90
2023-03-05T16:25:38.292Z,10.10
2023-03-05T16:28:06.878Z,10.80
2023-03-05T16:30:35.453Z,9.30
2023-03-05T16:33:03.833Z,12.50
2023-03-05T16:35:32.957Z,14.20
2023-03-05T16:38:01.717Z,10.60
2023-03-05T16:40:51.381Z,14.20
2023-03-05T16:43:18.550Z,10.10
2023-03-05T16:45:46.708Z,5.70
2023-03-05T16:48:14.777Z,7.00
2023-03-05T16:50:42.952Z,6.10
2023-03-05T16:53:11.122Z,7.50
2023-03-05T16:55:39.601Z,8.70
2023-03-05T16:58:08.083Z,5.50
2023-03-05T17:00:36.307Z,6.80
2023-03-05T17:03:04.533Z,3.60
2023-03-05T17:05:36.189Z,8.20
2023-03-05T17:08:05.170Z,6.50
2023-03-05T17:10:33.864Z,4.90
2023-03-05T17:13:02.063Z,7.60
2023-03-05T17:15:30.409Z,9.50
2023-03-05T17:17:58.678Z,9.30
2023-03-05T17:20:27.778Z,11.00
2023-03-05T17:22:55.943Z,10.60
2023-03-05T17:25:24.115Z,9.40
2023-03-05T17:27:52.523Z,12.20
2023-03-05T17:30:20.877Z,10.00
2023-03-05T17:32:52.625Z,9.90
2023-03-05T17:35:22.171Z,11.90
2023-03-05T17:37:51.738Z,10.60
2023-03-05T17:40:20.118Z,13.00
2023-03-05T17:42:48.187Z,14.60
2023-03-05T17:45:17.072Z,11.20
2023-03-05T17:47:45.244Z,12.80
2023-03-05T17:50:14.644Z,7.70
2023-03-05T17:52:42.817Z,7.90
2023-03-05T17:55:12.829Z,12.10
2023-03-05T17:57:42.655Z,13.40
2023-03-05T18:00:16.442Z,29.60
2023-03-05T18:02:45.037Z,35.20
2023-03-05T18:05:14.123Z,39.90
2023-03-05T18:07:42.501Z,37.80
2023-03-05T18:10:11.799Z,31.70
2023-03-05T18:12:40.488Z,27.70
2023-03-05T18:15:10.956Z,19.30
2023-03-05T18:17:39.701Z,18.60
2023-03-05T18:20:10.099Z,10.70
2023-03-05T18:22:38.194Z,18.40
2023-03-05T18:25:06.977Z,9.60
2023-03-05T18:27:35.457Z,10.10
2023-03-05T18:30:04.124Z,8.10
2023-03-05T18:32:32.237Z,7.80
2023-03-05T18:35:00.378Z,9.30
2023-03-05T18:37:28.557Z,10.90
2023-03-05T18:39:58.186Z,7.70
2023-03-05T18:42:26.434Z,11.20
2023-03-05T18:44:56.549Z,8.90
2023-03-05T18:47:24.731Z,8.00
2023-03-05T18:49:53.407Z,6.90
2023-03-05T18:52:21.576Z,9.70
2023-03-05T18:54:49.752Z,9.10
2023-03-05T18:57:17.925Z,16.50
2023-03-05T18:59:46.094Z,14.80
2023-03-05T19:02:15.597Z,16.70
2023-03-05T19:04:43.879Z,10.90
2023-03-05T19:07:12.179Z,10.00
2023-03-05T19:10:02.453Z,12.00
2023-03-05T19:12:35.375Z,10.20
2023-03-05T19:15:05.693Z,14.90
2023-03-05T19:17:34.128Z,12.60
2023-03-05T19:20:06.600Z,9.20
2023-03-05T19:22:34.885Z,9.60
2023-03-05T19:25:03.881Z,20.50
2023-03-05T19:27:32.036Z,25.70
2023-03-05T19:30:00.618Z,17.80
2023-03-05T19:32:29.343Z,16.90
2023-03-05T19:34:58.415Z,12.60
2023-03-05T19:37:27.387Z,11.70
2023-03-05T19:39:55.766Z,19.00
2023-03-05T19:42:23.934Z,22.10
2023-03-05T19:44:52.112Z,23.40
2023-03-05T19:47:20.482Z,21.20
2023-03-05T19:49:48.657Z,23.50
2023-03-05T19:52:16.930Z,18.40
2023-03-05T19:54:45.106Z,10.70
2023-03-05T19:57:13.274Z,8.00
2023-03-05T19:59:41.649Z,8.00
2023-03-05T20:02:12.176Z,11.40
2023-03-05T20:07:10.569Z,10.20
2023-03-05T20:09:38.761Z,13.20
2023-03-05T20:12:08.043Z,13.30
2023-03-05T20:14:36.537Z,9.90
2023-03-05T20:17:04.753Z,11.00
2023-03-05T20:19:32.974Z,12.20
2023-03-05T20:22:01.141Z,9.20
2023-03-05T20:24:29.314Z,12.10
2023-03-05T20:26:57.600Z,11.60
2023-03-05T20:29:25.686Z,13.90
2023-03-05T20:31:56.489Z,11.70
2023-03-05T20:34:25.278Z,117.40
2023-03-05T20:36:53.456Z,27.90
2023-03-05T20:39:21.727Z,11.60
2023-03-05T20:41:51.444Z,291.90
2023-03-05T20:44:19.608Z,1056.80
2023-03-05T20:47:02.815Z,827.80
2023-03-05T20:49:31.109Z,861.90
2023-03-05T20:51:59.187Z,766.60
2023-03-05T20:54:28.312Z,103.80
2023-03-05T20:56:56.548Z,23.40
2023-03-05T20:59:24.921Z,21.30
2023-03-05T21:01:53.111Z,19.40
2023-03-05T21:04:21.372Z,24.30
2023-03-05T21:06:52.806Z,25.40
2023-03-05T21:09:20.997Z,21.90
2023-03-05T21:11:49.166Z,15.40
2023-03-05T21:14:17.656Z,14.60
2023-03-05T21:16:45.867Z,14.50
2023-03-05T21:19:14.198Z,12.30
2023-03-05T21:21:45.772Z,14.30
2023-03-05T21:24:14.226Z,11.80
2023-03-05T21:26:42.397Z,11.40
2023-03-05T21:29:10.568Z,15.40
2023-03-05T21:31:38.679Z,11.10
2023-03-05T21:34:07.016Z,12.70
2023-03-05T21:36:35.392Z,9.60
2023-03-05T21:39:03.568Z,8.80
2023-03-05T21:41:31.738Z,9.60
2023-03-05T21:44:04.166Z,7.30
2023-03-05T21:46:32.489Z,9.70
2023-03-05T21:49:00.660Z,8.70
2023-03-05T21:51:38.671Z,8.20
2023-03-05T21:54:07.344Z,8.90
2023-03-05T21:56:35.830Z,8.50
2023-03-05T21:59:04.093Z,6.50
2023-03-05T22:01:32.333Z,8.50
2023-03-05T22:04:00.684Z,13.90
2023-03-05T22:06:28.921Z,17.40
2023-03-05T22:08:57.092Z,29.90
2023-03-05T22:11:25.362Z,32.10
2023-03-05T22:13:53.430Z,26.40
2023-03-05T22:16:26.227Z,40.10
2023-03-05T22:18:54.911Z,35.50
2023-03-05T22:21:26.624Z,27.50
2023-03-05T22:23:57.368Z,17.00
2023-03-05T22:28:54.341Z,13.60
2023-03-05T22:31:24.047Z,12.80
2023-03-05T22:33:53.255Z,18.20
2023-03-05T22:36:21.620Z,16.00
2023-03-05T22:38:49.806Z,20.70
2023-03-05T22:41:20.007Z,12.10
2023-03-05T22:43:49.619Z,17.20
2023-03-05T22:46:21.035Z,14.40
2023-03-05T22:48:49.547Z,8.80
2023-03-05T22:51:18.820Z,13.20
2023-03-05T22:53:47.427Z,7.90
2023-03-05T22:56:18.154Z,8.50
2023-03-05T23:01:16.534Z,6.50
2023-03-05T23:03:44.843Z,5.00
2023-03-05T23:06:13.218Z,4.70
2023-03-05T23:08:41.395Z,7.20
2023-03-05T23:11:11.704Z,8.10
2023-03-05T23:13:40.904Z,7.40
2023-03-05T23:16:10.005Z,10.80
2023-03-05T23:18:38.379Z,7.50
2023-03-05T23:21:06.769Z,10.80
2023-03-05T23:23:34.928Z,9.60
2023-03-05T23:26:03.220Z,6.60
2023-03-05T23:28:31.373Z,9.70
2023-03-05T23:30:59.565Z,9.10
2023-03-05T23:33:27.725Z,9.80
2023-03-05T23:35:58.212Z,10.30
2023-03-05T23:38:28.565Z,8.40
2023-03-05T23:41:00.697Z,9.00
2023-03-05T23:43:30.028Z,8.80
2023-03-05T23:45:58.466Z,14.80
2023-03-05T23:48:27.660Z,11.60
2023-03-05T23:50:56.384Z,11.20
2023-03-05T23:53:27.737Z,11.80
2023-03-05T23:55:56.218Z,11.70
2023-03-05T23:58:24.403Z,11.70
